Richmond, Virginia
Current Conditions -  °F | °C
As of 10:54 AM on Sunday 23 Nov 2014 (Local Time) from KRIC Reporting Station
Overcast Overcast  
Wind Chill:   Ceiling: 15000
Heat Index:   Visibility: 10mi
Dew Point: -2°   Wind: 0mph
Humidity: 46%   Direction: NA
Pressure: 30.23"   Gusts: NA
Location:  37.54°N, 77.43°W
Report Text: KRIC 231554Z 00000KT 10SM BKN150 OVC250 09/M02 A3023 RMK AO2 SLP243 T00941017
Loading
Personal Weather Stations






























Interactive Weather Map New forecast layout! Learn more

10-Day Weather Forecast

Advertisements
Track Severe Weather on mobile